sensor_id;sensor_type;location;lat;lon;timestamp;P1;durP1;ratioP1;P2;durP2;ratioP2
53245;SDS011;39569;51.090;-1.786;2023-04-24T00:00:38;21.58;;;13.77;;
53245;SDS011;39569;51.090;-1.786;2023-04-24T00:03:05;21.50;;;14.13;;
53245;SDS011;39569;51.090;-1.786;2023-04-24T00:05:32;16.92;;;14.00;;
53245;SDS011;39569;51.090;-1.786;2023-04-24T00:07:59;17.35;;;15.52;;
53245;SDS011;39569;51.090;-1.786;2023-04-24T00:10:26;14.95;;;13.50;;
53245;SDS011;39569;51.090;-1.786;2023-04-24T00:12:54;16.30;;;13.73;;
53245;SDS011;39569;51.090;-1.786;2023-04-24T00:15:21;15.73;;;12.85;;
53245;SDS011;39569;51.090;-1.786;2023-04-24T00:17:48;16.77;;;13.27;;
53245;SDS011;39569;51.090;-1.786;2023-04-24T00:20:15;20.30;;;13.82;;
53245;SDS011;39569;51.090;-1.786;2023-04-24T00:22:42;15.75;;;13.52;;
53245;SDS011;39569;51.090;-1.786;2023-04-24T00:25:08;15.98;;;14.25;;
53245;SDS011;39569;51.090;-1.786;2023-04-24T00:27:35;16.77;;;14.98;;
53245;SDS011;39569;51.090;-1.786;2023-04-24T00:30:05;25.65;;;15.55;;
53245;SDS011;39569;51.090;-1.786;2023-04-24T00:32:33;21.58;;;13.15;;
53245;SDS011;39569;51.090;-1.786;2023-04-24T00:35:00;14.50;;;12.45;;
53245;SDS011;39569;51.090;-1.786;2023-04-24T00:37:26;19.55;;;14.07;;
53245;SDS011;39569;51.090;-1.786;2023-04-24T00:39:53;15.73;;;13.75;;
53245;SDS011;39569;51.090;-1.786;2023-04-24T00:42:20;13.88;;;11.93;;
53245;SDS011;39569;51.090;-1.786;2023-04-24T00:44:47;21.25;;;13.75;;
53245;SDS011;39569;51.090;-1.786;2023-04-24T00:47:16;15.02;;;13.55;;
53245;SDS011;39569;51.090;-1.786;2023-04-24T00:49:44;16.83;;;14.95;;
53245;SDS011;39569;51.090;-1.786;2023-04-24T00:52:11;20.30;;;15.05;;
53245;SDS011;39569;51.090;-1.786;2023-04-24T00:54:42;15.40;;;13.52;;
53245;SDS011;39569;51.090;-1.786;2023-04-24T00:57:09;18.83;;;15.07;;
53245;SDS011;39569;51.090;-1.786;2023-04-24T00:59:36;13.65;;;12.20;;
53245;SDS011;39569;51.090;-1.786;2023-04-24T01:02:04;16.77;;;13.63;;
53245;SDS011;39569;51.090;-1.786;2023-04-24T01:04:32;21.00;;;13.93;;
53245;SDS011;39569;51.090;-1.786;2023-04-24T01:06:59;17.50;;;13.52;;
53245;SDS011;39569;51.090;-1.786;2023-04-24T01:09:26;16.10;;;14.18;;
53245;SDS011;39569;51.090;-1.786;2023-04-24T01:11:53;15.10;;;11.95;;
53245;SDS011;39569;51.090;-1.786;2023-04-24T01:14:20;12.57;;;11.02;;
53245;SDS011;39569;51.090;-1.786;2023-04-24T01:16:47;14.65;;;10.65;;
53245;SDS011;39569;51.090;-1.786;2023-04-24T01:19:13;14.02;;;11.68;;
53245;SDS011;39569;51.090;-1.786;2023-04-24T01:21:44;12.13;;;10.90;;
53245;SDS011;39569;51.090;-1.786;2023-04-24T01:24:15;20.20;;;12.82;;
53245;SDS011;39569;51.090;-1.786;2023-04-24T01:26:43;12.60;;;11.35;;
53245;SDS011;39569;51.090;-1.786;2023-04-24T01:29:10;17.25;;;11.32;;
53245;SDS011;39569;51.090;-1.786;2023-04-24T01:31:37;23.13;;;13.23;;
53245;SDS011;39569;51.090;-1.786;2023-04-24T01:34:04;15.60;;;11.60;;
53245;SDS011;39569;51.090;-1.786;2023-04-24T01:36:33;20.15;;;12.90;;
53245;SDS011;39569;51.090;-1.786;2023-04-24T01:39:01;14.10;;;12.52;;
53245;SDS011;39569;51.090;-1.786;2023-04-24T01:41:30;14.32;;;11.75;;
53245;SDS011;39569;51.090;-1.786;2023-04-24T01:43:57;11.27;;;10.18;;
53245;SDS011;39569;51.090;-1.786;2023-04-24T01:46:24;11.70;;;8.68;;
53245;SDS011;39569;51.090;-1.786;2023-04-24T01:48:51;11.52;;;10.35;;
53245;SDS011;39569;51.090;-1.786;2023-04-24T01:51:18;14.07;;;11.02;;
53245;SDS011;39569;51.090;-1.786;2023-04-24T01:53:45;23.30;;;9.27;;
53245;SDS011;39569;51.090;-1.786;2023-04-24T01:56:11;14.45;;;13.10;;
53245;SDS011;39569;51.090;-1.786;2023-04-24T01:58:40;15.05;;;12.73;;
53245;SDS011;39569;51.090;-1.786;2023-04-24T02:01:07;13.43;;;10.02;;
53245;SDS011;39569;51.090;-1.786;2023-04-24T02:03:34;11.57;;;10.23;;
53245;SDS011;39569;51.090;-1.786;2023-04-24T02:06:01;17.73;;;11.98;;
53245;SDS011;39569;51.090;-1.786;2023-04-24T02:08:27;11.13;;;10.02;;
53245;SDS011;39569;51.090;-1.786;2023-04-24T02:10:54;13.57;;;9.85;;
53245;SDS011;39569;51.090;-1.786;2023-04-24T02:13:21;13.52;;;9.75;;
53245;SDS011;39569;51.090;-1.786;2023-04-24T02:15:49;10.57;;;9.52;;
53245;SDS011;39569;51.090;-1.786;2023-04-24T02:18:16;15.82;;;9.88;;
53245;SDS011;39569;51.090;-1.786;2023-04-24T02:20:43;14.45;;;11.02;;
53245;SDS011;39569;51.090;-1.786;2023-04-24T02:23:09;13.63;;;10.88;;
53245;SDS011;39569;51.090;-1.786;2023-04-24T02:25:36;14.63;;;12.65;;
53245;SDS011;39569;51.090;-1.786;2023-04-24T02:28:03;16.20;;;11.65;;
53245;SDS011;39569;51.090;-1.786;2023-04-24T02:30:30;18.75;;;11.45;;
53245;SDS011;39569;51.090;-1.786;2023-04-24T02:32:58;25.95;;;12.77;;
53245;SDS011;39569;51.090;-1.786;2023-04-24T02:35:24;16.08;;;11.20;;
53245;SDS011;39569;51.090;-1.786;2023-04-24T02:37:51;12.85;;;10.52;;
53245;SDS011;39569;51.090;-1.786;2023-04-24T02:40:18;10.15;;;9.13;;
53245;SDS011;39569;51.090;-1.786;2023-04-24T02:42:45;12.40;;;10.80;;
53245;SDS011;39569;51.090;-1.786;2023-04-24T02:45:11;13.13;;;10.27;;
53245;SDS011;39569;51.090;-1.786;2023-04-24T02:47:38;11.45;;;9.80;;
53245;SDS011;39569;51.090;-1.786;2023-04-24T02:50:07;17.15;;;10.32;;
53245;SDS011;39569;51.090;-1.786;2023-04-24T02:52:34;11.70;;;9.70;;
53245;SDS011;39569;51.090;-1.786;2023-04-24T02:55:01;10.48;;;9.50;;
53245;SDS011;39569;51.090;-1.786;2023-04-24T02:57:27;14.75;;;9.38;;
53245;SDS011;39569;51.090;-1.786;2023-04-24T02:59:54;15.20;;;9.60;;
53245;SDS011;39569;51.090;-1.786;2023-04-24T03:02:21;13.70;;;10.50;;
53245;SDS011;39569;51.090;-1.786;2023-04-24T03:04:48;10.80;;;9.70;;
53245;SDS011;39569;51.090;-1.786;2023-04-24T03:07:16;12.18;;;9.45;;
53245;SDS011;39569;51.090;-1.786;2023-04-24T03:09:45;11.68;;;10.23;;
53245;SDS011;39569;51.090;-1.786;2023-04-24T03:12:12;9.45;;;8.55;;
53245;SDS011;39569;51.090;-1.786;2023-04-24T03:14:39;14.68;;;10.80;;
53245;SDS011;39569;51.090;-1.786;2023-04-24T03:17:05;12.27;;;9.10;;
53245;SDS011;39569;51.090;-1.786;2023-04-24T03:19:32;13.75;;;9.63;;
53245;SDS011;39569;51.090;-1.786;2023-04-24T03:21:59;12.93;;;9.70;;
53245;SDS011;39569;51.090;-1.786;2023-04-24T03:24:29;11.07;;;10.02;;
53245;SDS011;39569;51.090;-1.786;2023-04-24T03:26:56;12.65;;;9.13;;
53245;SDS011;39569;51.090;-1.786;2023-04-24T03:29:23;21.77;;;10.40;;
53245;SDS011;39569;51.090;-1.786;2023-04-24T03:31:50;11.13;;;8.48;;
53245;SDS011;39569;51.090;-1.786;2023-04-24T03:34:16;18.58;;;9.45;;
53245;SDS011;39569;51.090;-1.786;2023-04-24T03:36:43;12.20;;;8.50;;
53245;SDS011;39569;51.090;-1.786;2023-04-24T03:39:12;11.48;;;10.35;;
53245;SDS011;39569;51.090;-1.786;2023-04-24T03:41:40;12.15;;;9.45;;
53245;SDS011;39569;51.090;-1.786;2023-04-24T03:44:07;18.00;;;9.38;;
53245;SDS011;39569;51.090;-1.786;2023-04-24T03:46:34;11.68;;;8.35;;
53245;SDS011;39569;51.090;-1.786;2023-04-24T03:49:01;12.80;;;11.50;;
53245;SDS011;39569;51.090;-1.786;2023-04-24T03:51:27;15.48;;;9.88;;
53245;SDS011;39569;51.090;-1.786;2023-04-24T03:53:55;11.30;;;8.52;;
53245;SDS011;39569;51.090;-1.786;2023-04-24T03:56:22;12.40;;;10.68;;
53245;SDS011;39569;51.090;-1.786;2023-04-24T03:58:50;15.85;;;10.48;;
53245;SDS011;39569;51.090;-1.786;2023-04-24T04:01:16;9.02;;;8.23;;
53245;SDS011;39569;51.090;-1.786;2023-04-24T04:03:45;13.75;;;10.00;;
53245;SDS011;39569;51.090;-1.786;2023-04-24T04:06:12;15.35;;;9.82;;
53245;SDS011;39569;51.090;-1.786;2023-04-24T04:08:39;17.73;;;10.68;;
53245;SDS011;39569;51.090;-1.786;2023-04-24T04:11:06;10.10;;;8.95;;
53245;SDS011;39569;51.090;-1.786;2023-04-24T04:13:33;10.35;;;9.38;;
53245;SDS011;39569;51.090;-1.786;2023-04-24T04:16:01;12.20;;;9.52;;
53245;SDS011;39569;51.090;-1.786;2023-04-24T04:18:28;12.32;;;9.40;;
53245;SDS011;39569;51.090;-1.786;2023-04-24T04:20:54;9.30;;;8.23;;
53245;SDS011;39569;51.090;-1.786;2023-04-24T04:23:22;8.57;;;7.70;;
53245;SDS011;39569;51.090;-1.786;2023-04-24T04:25:48;10.50;;;8.13;;
53245;SDS011;39569;51.090;-1.786;2023-04-24T04:28:16;19.05;;;8.45;;
53245;SDS011;39569;51.090;-1.786;2023-04-24T04:30:46;11.07;;;8.50;;
53245;SDS011;39569;51.090;-1.786;2023-04-24T04:33:14;10.70;;;8.48;;
53245;SDS011;39569;51.090;-1.786;2023-04-24T04:35:41;15.80;;;9.65;;
53245;SDS011;39569;51.090;-1.786;2023-04-24T04:38:08;10.07;;;7.25;;
53245;SDS011;39569;51.090;-1.786;2023-04-24T04:40:35;12.55;;;8.50;;
53245;SDS011;39569;51.090;-1.786;2023-04-24T04:43:02;10.20;;;9.27;;
53245;SDS011;39569;51.090;-1.786;2023-04-24T04:45:29;15.93;;;10.70;;
53245;SDS011;39569;51.090;-1.786;2023-04-24T04:47:57;9.68;;;8.80;;
53245;SDS011;39569;51.090;-1.786;2023-04-24T04:50:27;12.55;;;8.82;;
53245;SDS011;39569;51.090;-1.786;2023-04-24T04:52:54;13.07;;;8.65;;
53245;SDS011;39569;51.090;-1.786;2023-04-24T04:55:20;12.70;;;11.40;;
53245;SDS011;39569;51.090;-1.786;2023-04-24T04:57:47;11.43;;;9.50;;
53245;SDS011;39569;51.090;-1.786;2023-04-24T05:00:14;11.13;;;10.00;;
53245;SDS011;39569;51.090;-1.786;2023-04-24T05:02:41;12.95;;;9.70;;
53245;SDS011;39569;51.090;-1.786;2023-04-24T05:05:11;11.18;;;10.00;;
53245;SDS011;39569;51.090;-1.786;2023-04-24T05:07:39;10.38;;;9.43;;
53245;SDS011;39569;51.090;-1.786;2023-04-24T05:10:06;12.52;;;10.27;;
53245;SDS011;39569;51.090;-1.786;2023-04-24T05:12:34;13.63;;;10.35;;
53245;SDS011;39569;51.090;-1.786;2023-04-24T05:15:01;11.23;;;9.57;;
53245;SDS011;39569;51.090;-1.786;2023-04-24T05:17:28;10.80;;;9.68;;
53245;SDS011;39569;51.090;-1.786;2023-04-24T05:19:55;22.40;;;11.35;;
53245;SDS011;39569;51.090;-1.786;2023-04-24T05:22:21;14.73;;;10.90;;
53245;SDS011;39569;51.090;-1.786;2023-04-24T05:24:50;10.98;;;9.85;;
53245;SDS011;39569;51.090;-1.786;2023-04-24T05:27:17;14.63;;;12.73;;
53245;SDS011;39569;51.090;-1.786;2023-04-24T05:29:43;12.70;;;10.27;;
53245;SDS011;39569;51.090;-1.786;2023-04-24T05:32:10;11.68;;;10.60;;
53245;SDS011;39569;51.090;-1.786;2023-04-24T05:34:37;10.15;;;9.18;;
53245;SDS011;39569;51.090;-1.786;2023-04-24T05:37:04;11.65;;;10.55;;
53245;SDS011;39569;51.090;-1.786;2023-04-24T05:39:33;11.60;;;10.20;;
53245;SDS011;39569;51.090;-1.786;2023-04-24T05:42:01;14.02;;;11.48;;
53245;SDS011;39569;51.090;-1.786;2023-04-24T05:44:29;11.50;;;10.38;;
53245;SDS011;39569;51.090;-1.786;2023-04-24T05:46:56;10.38;;;9.07;;
53245;SDS011;39569;51.090;-1.786;2023-04-24T05:49:23;14.02;;;10.85;;
53245;SDS011;39569;51.090;-1.786;2023-04-24T05:51:50;13.00;;;11.75;;
53245;SDS011;39569;51.090;-1.786;2023-04-24T05:54:16;15.98;;;11.68;;
53245;SDS011;39569;51.090;-1.786;2023-04-24T05:56:43;16.10;;;13.05;;
53245;SDS011;39569;51.090;-1.786;2023-04-24T05:59:11;11.63;;;10.32;;
53245;SDS011;39569;51.090;-1.786;2023-04-24T06:01:38;23.60;;;13.55;;
53245;SDS011;39569;51.090;-1.786;2023-04-24T06:04:05;13.25;;;11.95;;
53245;SDS011;39569;51.090;-1.786;2023-04-24T06:06:32;13.95;;;12.48;;
53245;SDS011;39569;51.090;-1.786;2023-04-24T06:08:59;16.08;;;13.45;;
53245;SDS011;39569;51.090;-1.786;2023-04-24T06:11:27;15.38;;;13.93;;
53245;SDS011;39569;51.090;-1.786;2023-04-24T06:13:53;15.05;;;13.50;;
53245;SDS011;39569;51.090;-1.786;2023-04-24T06:16:22;13.48;;;12.20;;
53245;SDS011;39569;51.090;-1.786;2023-04-24T06:18:48;11.90;;;10.80;;
53245;SDS011;39569;51.090;-1.786;2023-04-24T06:21:16;24.40;;;13.05;;
53245;SDS011;39569;51.090;-1.786;2023-04-24T06:23:42;21.83;;;13.07;;
53245;SDS011;39569;51.090;-1.786;2023-04-24T06:26:11;15.82;;;13.15;;
53245;SDS011;39569;51.090;-1.786;2023-04-24T06:28:38;12.55;;;11.20;;
53245;SDS011;39569;51.090;-1.786;2023-04-24T06:31:05;29.95;;;27.13;;
53245;SDS011;39569;51.090;-1.786;2023-04-24T06:33:33;12.80;;;11.68;;
53245;SDS011;39569;51.090;-1.786;2023-04-24T06:36:00;12.93;;;11.43;;
53245;SDS011;39569;51.090;-1.786;2023-04-24T06:38:26;13.98;;;12.52;;
53245;SDS011;39569;51.090;-1.786;2023-04-24T06:40:54;26.90;;;24.38;;
53245;SDS011;39569;51.090;-1.786;2023-04-24T06:43:21;12.95;;;10.95;;
53245;SDS011;39569;51.090;-1.786;2023-04-24T06:45:48;11.50;;;10.48;;
53245;SDS011;39569;51.090;-1.786;2023-04-24T06:48:15;10.57;;;9.60;;
53245;SDS011;39569;51.090;-1.786;2023-04-24T06:50:43;12.55;;;11.23;;
53245;SDS011;39569;51.090;-1.786;2023-04-24T06:53:10;19.75;;;12.30;;
53245;SDS011;39569;51.090;-1.786;2023-04-24T06:55:39;25.83;;;23.30;;
53245;SDS011;39569;51.090;-1.786;2023-04-24T06:58:06;11.07;;;9.90;;
53245;SDS011;39569;51.090;-1.786;2023-04-24T07:00:33;13.32;;;9.90;;
53245;SDS011;39569;51.090;-1.786;2023-04-24T07:03:00;9.63;;;8.60;;
53245;SDS011;39569;51.090;-1.786;2023-04-24T07:05:27;21.65;;;19.77;;
53245;SDS011;39569;51.090;-1.786;2023-04-24T07:07:56;23.90;;;21.35;;
53245;SDS011;39569;51.090;-1.786;2023-04-24T07:10:23;24.08;;;11.82;;
53245;SDS011;39569;51.090;-1.786;2023-04-24T07:12:52;13.38;;;9.50;;
53245;SDS011;39569;51.090;-1.786;2023-04-24T07:15:19;10.85;;;9.88;;
53245;SDS011;39569;51.090;-1.786;2023-04-24T07:17:45;12.05;;;10.00;;
53245;SDS011;39569;51.090;-1.786;2023-04-24T07:20:12;22.95;;;20.70;;
53245;SDS011;39569;51.090;-1.786;2023-04-24T07:22:39;23.40;;;20.92;;
53245;SDS011;39569;51.090;-1.786;2023-04-24T07:25:08;26.13;;;23.92;;
53245;SDS011;39569;51.090;-1.786;2023-04-24T07:27:35;10.32;;;9.45;;
53245;SDS011;39569;51.090;-1.786;2023-04-24T07:30:02;13.75;;;10.68;;
53245;SDS011;39569;51.090;-1.786;2023-04-24T07:32:29;25.98;;;23.33;;
53245;SDS011;39569;51.090;-1.786;2023-04-24T07:34:56;23.73;;;21.55;;
53245;SDS011;39569;51.090;-1.786;2023-04-24T07:37:23;23.40;;;21.20;;
53245;SDS011;39569;51.090;-1.786;2023-04-24T07:39:50;23.35;;;20.80;;
53245;SDS011;39569;51.090;-1.786;2023-04-24T07:42:18;20.38;;;18.45;;
53245;SDS011;39569;51.090;-1.786;2023-04-24T07:44:45;11.63;;;6.88;;
53245;SDS011;39569;51.090;-1.786;2023-04-24T07:47:12;19.38;;;17.40;;
53245;SDS011;39569;51.090;-1.786;2023-04-24T07:49:40;19.27;;;17.15;;
53245;SDS011;39569;51.090;-1.786;2023-04-24T07:52:07;18.08;;;16.27;;
53245;SDS011;39569;51.090;-1.786;2023-04-24T07:54:34;17.52;;;16.05;;
53245;SDS011;39569;51.090;-1.786;2023-04-24T07:57:02;19.42;;;17.67;;
53245;SDS011;39569;51.090;-1.786;2023-04-24T07:59:30;18.98;;;17.15;;
53245;SDS011;39569;51.090;-1.786;2023-04-24T08:01:57;18.30;;;16.45;;
53245;SDS011;39569;51.090;-1.786;2023-04-24T08:04:25;18.15;;;16.50;;
53245;SDS011;39569;51.090;-1.786;2023-04-24T08:06:52;16.83;;;15.18;;
53245;SDS011;39569;51.090;-1.786;2023-04-24T08:09:19;19.33;;;17.45;;
53245;SDS011;39569;51.090;-1.786;2023-04-24T08:11:45;18.27;;;16.50;;
53245;SDS011;39569;51.090;-1.786;2023-04-24T08:14:12;18.25;;;16.60;;
53245;SDS011;39569;51.090;-1.786;2023-04-24T08:16:41;16.38;;;14.02;;
53245;SDS011;39569;51.090;-1.786;2023-04-24T08:19:08;18.33;;;16.40;;
53245;SDS011;39569;51.090;-1.786;2023-04-24T08:21:35;21.95;;;17.80;;
53245;SDS011;39569;51.090;-1.786;2023-04-24T08:24:01;26.45;;;17.13;;
53245;SDS011;39569;51.090;-1.786;2023-04-24T08:26:30;17.73;;;15.93;;
53245;SDS011;39569;51.090;-1.786;2023-04-24T08:28:57;16.17;;;14.75;;
53245;SDS011;39569;51.090;-1.786;2023-04-24T08:31:23;17.23;;;15.70;;
53245;SDS011;39569;51.090;-1.786;2023-04-24T08:33:52;19.02;;;17.13;;
53245;SDS011;39569;51.090;-1.786;2023-04-24T08:36:19;18.00;;;16.40;;
53245;SDS011;39569;51.090;-1.786;2023-04-24T08:38:46;17.30;;;15.75;;
53245;SDS011;39569;51.090;-1.786;2023-04-24T08:41:13;18.58;;;16.77;;
53245;SDS011;39569;51.090;-1.786;2023-04-24T08:43:41;19.17;;;17.40;;
53245;SDS011;39569;51.090;-1.786;2023-04-24T08:46:08;17.17;;;15.65;;
53245;SDS011;39569;51.090;-1.786;2023-04-24T08:48:36;17.63;;;15.88;;
53245;SDS011;39569;51.090;-1.786;2023-04-24T08:51:06;22.05;;;15.90;;
53245;SDS011;39569;51.090;-1.786;2023-04-24T08:53:34;18.83;;;17.02;;
53245;SDS011;39569;51.090;-1.786;2023-04-24T08:56:02;21.92;;;19.67;;
53245;SDS011;39569;51.090;-1.786;2023-04-24T08:58:29;22.65;;;18.23;;
53245;SDS011;39569;51.090;-1.786;2023-04-24T09:00:57;18.67;;;16.77;;
53245;SDS011;39569;51.090;-1.786;2023-04-24T09:03:26;22.63;;;20.55;;
53245;SDS011;39569;51.090;-1.786;2023-04-24T09:05:54;23.48;;;20.90;;
53245;SDS011;39569;51.090;-1.786;2023-04-24T09:08:23;23.98;;;21.63;;
53245;SDS011;39569;51.090;-1.786;2023-04-24T09:10:51;22.52;;;20.42;;
53245;SDS011;39569;51.090;-1.786;2023-04-24T09:13:18;22.92;;;20.80;;
53245;SDS011;39569;51.090;-1.786;2023-04-24T09:15:46;22.33;;;20.42;;
53245;SDS011;39569;51.090;-1.786;2023-04-24T09:18:13;24.08;;;21.20;;
53245;SDS011;39569;51.090;-1.786;2023-04-24T09:23:27;11.88;;;10.68;;
53245;SDS011;39569;51.090;-1.786;2023-04-24T09:25:55;22.67;;;20.73;;
53245;SDS011;39569;51.090;-1.786;2023-04-24T09:28:26;23.10;;;20.25;;
53245;SDS011;39569;51.090;-1.786;2023-04-24T09:31:02;25.80;;;19.77;;
53245;SDS011;39569;51.090;-1.786;2023-04-24T09:33:33;17.30;;;15.70;;
53245;SDS011;39569;51.090;-1.786;2023-04-24T09:36:00;19.00;;;17.00;;
53245;SDS011;39569;51.090;-1.786;2023-04-24T09:38:33;19.15;;;17.55;;
53245;SDS011;39569;51.090;-1.786;2023-04-24T09:41:01;21.83;;;19.38;;
53245;SDS011;39569;51.090;-1.786;2023-04-24T09:43:29;17.20;;;15.68;;
53245;SDS011;39569;51.090;-1.786;2023-04-24T09:45:56;16.83;;;13.82;;
53245;SDS011;39569;51.090;-1.786;2023-04-24T09:48:30;19.60;;;15.23;;
53245;SDS011;39569;51.090;-1.786;2023-04-24T09:50:58;18.38;;;16.48;;
53245;SDS011;39569;51.090;-1.786;2023-04-24T09:53:25;15.13;;;13.93;;
53245;SDS011;39569;51.090;-1.786;2023-04-24T09:55:55;14.55;;;12.45;;
53245;SDS011;39569;51.090;-1.786;2023-04-24T09:58:24;12.43;;;11.38;;
53245;SDS011;39569;51.090;-1.786;2023-04-24T10:00:56;14.13;;;12.77;;
53245;SDS011;39569;51.090;-1.786;2023-04-24T10:03:23;16.77;;;15.35;;
53245;SDS011;39569;51.090;-1.786;2023-04-24T10:05:52;12.35;;;11.32;;
53245;SDS011;39569;51.090;-1.786;2023-04-24T10:08:20;17.75;;;12.20;;
53245;SDS011;39569;51.090;-1.786;2023-04-24T10:10:48;12.48;;;11.23;;
53245;SDS011;39569;51.090;-1.786;2023-04-24T10:13:16;17.58;;;12.35;;
53245;SDS011;39569;51.090;-1.786;2023-04-24T10:15:43;12.95;;;10.65;;
53245;SDS011;39569;51.090;-1.786;2023-04-24T10:18:10;13.52;;;10.55;;
53245;SDS011;39569;51.090;-1.786;2023-04-24T10:20:38;11.48;;;10.50;;
53245;SDS011;39569;51.090;-1.786;2023-04-24T10:23:05;12.50;;;11.35;;
53245;SDS011;39569;51.090;-1.786;2023-04-24T10:25:33;11.95;;;10.85;;
53245;SDS011;39569;51.090;-1.786;2023-04-24T10:28:01;14.35;;;12.75;;
53245;SDS011;39569;51.090;-1.786;2023-04-24T10:30:30;13.95;;;12.65;;
53245;SDS011;39569;51.090;-1.786;2023-04-24T10:33:00;15.23;;;13.98;;
53245;SDS011;39569;51.090;-1.786;2023-04-24T10:35:27;12.52;;;10.88;;
53245;SDS011;39569;51.090;-1.786;2023-04-24T10:37:58;11.43;;;10.43;;
53245;SDS011;39569;51.090;-1.786;2023-04-24T10:40:30;11.80;;;10.55;;
53245;SDS011;39569;51.090;-1.786;2023-04-24T10:42:58;14.43;;;11.13;;
53245;SDS011;39569;51.090;-1.786;2023-04-24T10:45:26;13.82;;;12.60;;
53245;SDS011;39569;51.090;-1.786;2023-04-24T10:47:54;16.00;;;12.93;;
53245;SDS011;39569;51.090;-1.786;2023-04-24T10:50:25;21.08;;;11.73;;
53245;SDS011;39569;51.090;-1.786;2023-04-24T10:52:53;12.95;;;11.65;;
53245;SDS011;39569;51.090;-1.786;2023-04-24T10:55:41;12.07;;;11.05;;
53245;SDS011;39569;51.090;-1.786;2023-04-24T10:58:09;14.68;;;13.23;;
53245;SDS011;39569;51.090;-1.786;2023-04-24T11:00:37;15.05;;;13.52;;
53245;SDS011;39569;51.090;-1.786;2023-04-24T11:03:06;18.98;;;15.13;;
53245;SDS011;39569;51.090;-1.786;2023-04-24T11:05:55;15.15;;;13.55;;
53245;SDS011;39569;51.090;-1.786;2023-04-24T11:08:23;16.92;;;15.38;;
53245;SDS011;39569;51.090;-1.786;2023-04-24T11:10:59;19.70;;;15.90;;
53245;SDS011;39569;51.090;-1.786;2023-04-24T11:13:31;16.48;;;14.95;;
53245;SDS011;39569;51.090;-1.786;2023-04-24T11:16:43;16.15;;;14.45;;
53245;SDS011;39569;51.090;-1.786;2023-04-24T11:19:20;11.70;;;10.55;;
53245;SDS011;39569;51.090;-1.786;2023-04-24T11:21:54;13.30;;;10.93;;
53245;SDS011;39569;51.090;-1.786;2023-04-24T11:24:29;13.35;;;10.80;;
53245;SDS011;39569;51.090;-1.786;2023-04-24T11:26:58;20.40;;;10.90;;
53245;SDS011;39569;51.090;-1.786;2023-04-24T11:29:38;21.90;;;11.48;;
53245;SDS011;39569;51.090;-1.786;2023-04-24T11:34:54;17.48;;;14.90;;
53245;SDS011;39569;51.090;-1.786;2023-04-24T11:37:22;17.67;;;15.90;;
53245;SDS011;39569;51.090;-1.786;2023-04-24T11:39:50;22.42;;;16.45;;
53245;SDS011;39569;51.090;-1.786;2023-04-24T11:42:18;16.92;;;14.95;;
53245;SDS011;39569;51.090;-1.786;2023-04-24T11:44:47;17.58;;;15.85;;
53245;SDS011;39569;51.090;-1.786;2023-04-24T11:47:15;16.30;;;14.90;;
53245;SDS011;39569;51.090;-1.786;2023-04-24T11:49:42;12.07;;;10.85;;
53245;SDS011;39569;51.090;-1.786;2023-04-24T11:52:10;9.65;;;8.70;;
53245;SDS011;39569;51.090;-1.786;2023-04-24T11:54:37;9.73;;;8.77;;
53245;SDS011;39569;51.090;-1.786;2023-04-24T11:57:04;9.93;;;8.45;;
53245;SDS011;39569;51.090;-1.786;2023-04-24T11:59:35;9.40;;;8.45;;
53245;SDS011;39569;51.090;-1.786;2023-04-24T12:02:02;9.38;;;8.57;;
53245;SDS011;39569;51.090;-1.786;2023-04-24T12:04:37;8.98;;;8.15;;
53245;SDS011;39569;51.090;-1.786;2023-04-24T12:07:05;7.38;;;6.72;;
53245;SDS011;39569;51.090;-1.786;2023-04-24T12:09:44;5.60;;;4.78;;
53245;SDS011;39569;51.090;-1.786;2023-04-24T12:12:12;5.25;;;4.63;;
53245;SDS011;39569;51.090;-1.786;2023-04-24T12:14:44;8.10;;;6.22;;
53245;SDS011;39569;51.090;-1.786;2023-04-24T12:17:13;8.18;;;5.20;;
53245;SDS011;39569;51.090;-1.786;2023-04-24T12:19:44;4.90;;;3.70;;
53245;SDS011;39569;51.090;-1.786;2023-04-24T12:22:12;9.80;;;8.90;;
53245;SDS011;39569;51.090;-1.786;2023-04-24T12:27:28;11.23;;;10.32;;
53245;SDS011;39569;51.090;-1.786;2023-04-24T12:29:56;11.40;;;8.50;;
53245;SDS011;39569;51.090;-1.786;2023-04-24T12:32:24;6.95;;;6.32;;
53245;SDS011;39569;51.090;-1.786;2023-04-24T12:34:51;8.15;;;7.22;;
53245;SDS011;39569;51.090;-1.786;2023-04-24T12:37:19;12.70;;;9.50;;
53245;SDS011;39569;51.090;-1.786;2023-04-24T12:40:03;9.55;;;7.40;;
53245;SDS011;39569;51.090;-1.786;2023-04-24T12:42:32;11.48;;;5.35;;
53245;SDS011;39569;51.090;-1.786;2023-04-24T12:45:02;6.03;;;5.05;;
53245;SDS011;39569;51.090;-1.786;2023-04-24T12:47:30;12.57;;;8.63;;
53245;SDS011;39569;51.090;-1.786;2023-04-24T12:49:57;8.88;;;7.63;;
53245;SDS011;39569;51.090;-1.786;2023-04-24T12:52:25;9.40;;;5.95;;
53245;SDS011;39569;51.090;-1.786;2023-04-24T12:54:52;11.02;;;6.95;;
53245;SDS011;39569;51.090;-1.786;2023-04-24T12:57:22;2.60;;;2.40;;
53245;SDS011;39569;51.090;-1.786;2023-04-24T12:59:49;6.72;;;5.68;;
53245;SDS011;39569;51.090;-1.786;2023-04-24T13:02:16;6.00;;;5.40;;
53245;SDS011;39569;51.090;-1.786;2023-04-24T13:04:43;6.63;;;6.13;;
53245;SDS011;39569;51.090;-1.786;2023-04-24T13:07:12;2.17;;;1.98;;
53245;SDS011;39569;51.090;-1.786;2023-04-24T13:09:39;8.45;;;5.47;;
53245;SDS011;39569;51.090;-1.786;2023-04-24T13:12:06;6.00;;;5.55;;
53245;SDS011;39569;51.090;-1.786;2023-04-24T13:14:34;8.35;;;6.82;;
53245;SDS011;39569;51.090;-1.786;2023-04-24T13:17:02;7.60;;;6.75;;
53245;SDS011;39569;51.090;-1.786;2023-04-24T13:19:29;5.70;;;5.20;;
53245;SDS011;39569;51.090;-1.786;2023-04-24T13:21:56;4.25;;;3.38;;
53245;SDS011;39569;51.090;-1.786;2023-04-24T13:24:24;16.25;;;7.32;;
53245;SDS011;39569;51.090;-1.786;2023-04-24T13:26:51;10.00;;;6.95;;
53245;SDS011;39569;51.090;-1.786;2023-04-24T13:29:18;8.38;;;6.72;;
53245;SDS011;39569;51.090;-1.786;2023-04-24T13:31:47;11.57;;;7.40;;
53245;SDS011;39569;51.090;-1.786;2023-04-24T13:34:14;13.55;;;6.40;;
53245;SDS011;39569;51.090;-1.786;2023-04-24T13:36:41;8.88;;;7.10;;
53245;SDS011;39569;51.090;-1.786;2023-04-24T13:39:08;6.43;;;5.80;;
53245;SDS011;39569;51.090;-1.786;2023-04-24T13:41:35;7.25;;;6.00;;
53245;SDS011;39569;51.090;-1.786;2023-04-24T13:44:02;15.27;;;6.68;;
53245;SDS011;39569;51.090;-1.786;2023-04-24T13:46:30;7.80;;;6.50;;
53245;SDS011;39569;51.090;-1.786;2023-04-24T13:48:58;7.28;;;6.50;;
53245;SDS011;39569;51.090;-1.786;2023-04-24T13:51:25;7.20;;;6.60;;
53245;SDS011;39569;51.090;-1.786;2023-04-24T13:53:53;6.68;;;6.05;;
53245;SDS011;39569;51.090;-1.786;2023-04-24T13:56:20;7.00;;;6.22;;
53245;SDS011;39569;51.090;-1.786;2023-04-24T13:58:47;7.13;;;6.57;;
53245;SDS011;39569;51.090;-1.786;2023-04-24T14:01:14;6.65;;;6.05;;
53245;SDS011;39569;51.090;-1.786;2023-04-24T14:03:42;6.10;;;5.63;;
53245;SDS011;39569;51.090;-1.786;2023-04-24T14:06:10;9.25;;;5.53;;
53245;SDS011;39569;51.090;-1.786;2023-04-24T14:08:37;7.35;;;5.60;;
53245;SDS011;39569;51.090;-1.786;2023-04-24T14:11:04;5.97;;;5.35;;
53245;SDS011;39569;51.090;-1.786;2023-04-24T14:13:31;5.47;;;5.03;;
53245;SDS011;39569;51.090;-1.786;2023-04-24T14:15:58;11.60;;;5.65;;
53245;SDS011;39569;51.090;-1.786;2023-04-24T14:18:25;5.63;;;5.13;;
53245;SDS011;39569;51.090;-1.786;2023-04-24T14:20:52;6.18;;;4.85;;
53245;SDS011;39569;51.090;-1.786;2023-04-24T14:23:20;7.50;;;5.72;;
53245;SDS011;39569;51.090;-1.786;2023-04-24T14:25:47;7.53;;;5.63;;
53245;SDS011;39569;51.090;-1.786;2023-04-24T14:28:16;5.32;;;4.75;;